createdAt,value
2017-08-02T00:01:35.807Z,21.70
2017-08-02T00:04:03.228Z,21.60
2017-08-02T00:06:30.651Z,21.50
2017-08-02T00:08:58.088Z,21.50
2017-08-02T00:11:25.512Z,21.40
2017-08-02T00:13:52.935Z,21.40
2017-08-02T00:16:21.125Z,21.30
2017-08-02T00:18:48.555Z,21.30
2017-08-02T00:21:15.975Z,21.20
2017-08-02T00:23:43.416Z,21.20
2017-08-02T00:26:10.835Z,21.20
2017-08-02T00:28:39.036Z,21.00
2017-08-02T00:31:06.535Z,21.00
2017-08-02T00:33:33.956Z,21.00
2017-08-02T00:36:01.375Z,21.00
2017-08-02T00:38:29.580Z,20.90
2017-08-02T00:40:57.004Z,20.80
2017-08-02T00:43:24.435Z,20.90
2017-08-02T00:45:51.867Z,20.90
2017-08-02T00:48:19.312Z,20.90
2017-08-02T00:50:46.735Z,20.90
2017-08-02T00:53:14.923Z,20.90
2017-08-02T00:55:42.349Z,20.90
2017-08-02T00:58:10.056Z,20.90
2017-08-02T01:00:38.227Z,20.90
2017-08-02T01:03:05.648Z,20.90
2017-08-02T01:05:33.074Z,20.90
2017-08-02T01:08:00.503Z,20.90
2017-08-02T01:10:27.936Z,20.90
2017-08-02T01:12:58.131Z,20.80
2017-08-02T01:15:25.559Z,20.80
2017-08-02T01:17:52.984Z,20.90
2017-08-02T01:20:20.415Z,20.80
2017-08-02T01:22:48.608Z,20.80
2017-08-02T01:25:16.050Z,20.80
2017-08-02T01:27:44.248Z,20.90
2017-08-02T01:30:11.680Z,20.80
2017-08-02T01:32:39.885Z,20.80
2017-08-02T01:35:07.321Z,20.80
2017-08-02T01:37:35.516Z,20.80
2017-08-02T01:40:02.943Z,20.80
2017-08-02T01:42:31.139Z,20.80
2017-08-02T01:44:58.581Z,20.80
2017-08-02T01:47:26.768Z,20.80
2017-08-02T01:49:54.214Z,20.80
2017-08-02T01:52:22.404Z,20.80
2017-08-02T01:54:49.860Z,20.80
2017-08-02T01:57:17.279Z,20.80
2017-08-02T01:59:45.481Z,20.60
2017-08-02T02:02:12.923Z,20.60
2017-08-02T02:04:41.113Z,20.70
2017-08-02T02:07:08.557Z,20.60
2017-08-02T02:09:36.752Z,20.70
2017-08-02T02:12:04.181Z,20.70
2017-08-02T02:14:32.376Z,20.60
2017-08-02T02:16:59.813Z,20.60
2017-08-02T02:19:28.004Z,20.60
2017-08-02T02:21:55.445Z,20.60
2017-08-02T02:24:23.635Z,20.50
2017-08-02T02:26:51.067Z,20.50
2017-08-02T02:29:19.273Z,20.50
2017-08-02T02:31:46.704Z,20.50
2017-08-02T02:34:14.909Z,20.30
2017-08-02T02:36:42.343Z,20.30
2017-08-02T02:39:10.537Z,20.30
2017-08-02T02:41:37.971Z,20.20
2017-08-02T02:44:06.173Z,20.30
2017-08-02T02:46:33.608Z,20.30
2017-08-02T02:49:01.810Z,20.30
2017-08-02T02:51:29.252Z,20.20
2017-08-02T02:53:56.685Z,20.30
2017-08-02T02:56:24.893Z,20.30
2017-08-02T02:58:52.319Z,20.30
2017-08-02T03:01:20.534Z,20.30
2017-08-02T03:03:48.041Z,20.30
2017-08-02T03:06:15.471Z,20.30
2017-08-02T03:08:42.922Z,20.40
2017-08-02T03:11:10.348Z,20.40
2017-08-02T03:13:37.788Z,20.40
2017-08-02T03:16:05.225Z,20.40
2017-08-02T03:18:32.661Z,20.40
2017-08-02T03:21:00.092Z,20.40
2017-08-02T03:23:27.532Z,20.40
2017-08-02T03:25:54.965Z,20.40
2017-08-02T03:28:23.182Z,20.40
2017-08-02T03:30:50.609Z,20.40
2017-08-02T03:33:18.152Z,20.40
2017-08-02T03:35:46.358Z,20.40
2017-08-02T03:38:13.805Z,20.40
2017-08-02T03:40:41.232Z,20.30
2017-08-02T03:43:09.435Z,20.30
2017-08-02T03:45:36.869Z,20.30
2017-08-02T03:48:05.072Z,20.30
2017-08-02T03:50:32.504Z,20.30
2017-08-02T03:53:00.704Z,20.20
2017-08-02T03:55:28.132Z,20.20
2017-08-02T03:57:56.412Z,20.20
2017-08-02T04:00:24.679Z,20.20
2017-08-02T04:02:52.884Z,20.20
2017-08-02T04:05:20.316Z,20.20
2017-08-02T04:07:48.525Z,20.20
2017-08-02T04:10:15.961Z,20.10
2017-08-02T04:12:43.400Z,20.20
2017-08-02T04:15:11.609Z,20.10
2017-08-02T04:17:39.036Z,20.00
2017-08-02T04:20:07.278Z,20.10
2017-08-02T04:22:34.713Z,20.10
2017-08-02T04:25:03.248Z,20.10
2017-08-02T04:27:31.449Z,20.10
2017-08-02T04:29:58.884Z,20.10
2017-08-02T04:32:27.084Z,20.10
2017-08-02T04:34:54.520Z,20.10
2017-08-02T04:37:22.785Z,20.10
2017-08-02T04:39:50.989Z,20.10
2017-08-02T04:42:19.439Z,20.10
2017-08-02T04:44:47.644Z,20.20
2017-08-02T04:47:15.081Z,20.20
2017-08-02T04:49:43.291Z,20.20
2017-08-02T04:52:10.801Z,20.30
2017-08-02T04:54:44.245Z,20.30
2017-08-02T04:57:17.802Z,20.30
2017-08-02T04:59:45.228Z,20.30
2017-08-02T05:02:12.661Z,20.40
2017-08-02T05:04:40.091Z,20.50
2017-08-02T05:07:07.519Z,20.50
2017-08-02T05:09:34.962Z,20.50
2017-08-02T05:12:02.400Z,20.50
2017-08-02T05:14:29.852Z,20.50
2017-08-02T05:16:57.289Z,20.60
2017-08-02T05:19:24.716Z,20.60
2017-08-02T05:21:52.938Z,20.60
2017-08-02T05:24:20.352Z,20.50
2017-08-02T05:26:48.573Z,20.60
2017-08-02T05:29:15.988Z,20.60
2017-08-02T05:31:43.424Z,20.70
2017-08-02T05:34:11.629Z,20.70
2017-08-02T05:36:39.064Z,20.70
2017-08-02T05:39:07.269Z,20.80
2017-08-02T05:41:34.701Z,20.70
2017-08-02T05:44:02.900Z,20.80
2017-08-02T05:46:30.336Z,20.80
2017-08-02T05:48:57.767Z,20.90
2017-08-02T05:51:25.204Z,21.00
2017-08-02T05:53:52.638Z,21.10
2017-08-02T05:56:20.072Z,21.20
2017-08-02T05:58:47.505Z,21.20
2017-08-02T06:01:15.716Z,21.50
2017-08-02T06:03:43.149Z,21.50
2017-08-02T06:06:10.589Z,21.60
2017-08-02T06:08:38.789Z,21.80
2017-08-02T06:11:06.224Z,21.80
2017-08-02T06:13:33.657Z,21.90
2017-08-02T06:16:01.088Z,22.00
2017-08-02T06:18:28.520Z,22.20
2017-08-02T06:20:55.963Z,22.50
2017-08-02T06:23:23.402Z,22.60
2017-08-02T06:25:50.874Z,22.70
2017-08-02T06:28:19.064Z,22.80
2017-08-02T06:30:46.489Z,22.80
2017-08-02T06:33:13.925Z,22.80
2017-08-02T06:35:41.362Z,22.80
2017-08-02T06:38:08.788Z,22.80
2017-08-02T06:40:36.227Z,22.80
2017-08-02T06:43:04.424Z,23.00
2017-08-02T06:45:31.865Z,23.00
2017-08-02T06:47:59.301Z,23.20
2017-08-02T06:50:27.497Z,23.30
2017-08-02T06:52:54.940Z,23.30
2017-08-02T06:55:23.136Z,23.30
2017-08-02T06:57:50.574Z,23.30
2017-08-02T07:00:18.769Z,23.70
2017-08-02T07:02:46.204Z,23.70
2017-08-02T07:05:13.631Z,24.00
2017-08-02T07:07:41.064Z,24.10
2017-08-02T07:10:08.496Z,24.30
2017-08-02T07:12:35.920Z,24.50
2017-08-02T07:15:04.113Z,25.20
2017-08-02T07:17:31.542Z,25.10
2017-08-02T07:19:58.963Z,25.50
2017-08-02T07:22:26.405Z,25.90
2017-08-02T07:24:53.833Z,26.10
2017-08-02T07:27:21.280Z,26.40
2017-08-02T07:29:49.472Z,26.60
2017-08-02T07:32:16.901Z,26.60
2017-08-02T07:34:44.341Z,26.90
2017-08-02T07:37:11.769Z,27.00
2017-08-02T07:39:39.213Z,27.20
2017-08-02T07:42:06.635Z,27.30
2017-08-02T07:44:34.094Z,27.10
2017-08-02T07:47:02.288Z,27.10
2017-08-02T07:49:29.713Z,27.10
2017-08-02T07:51:57.140Z,27.50
2017-08-02T07:54:24.577Z,27.90
2017-08-02T07:56:52.004Z,28.10
2017-08-02T07:59:20.204Z,27.90
2017-08-02T08:01:47.627Z,27.80
2017-08-02T08:04:15.072Z,27.90
2017-08-02T08:06:42.495Z,28.10
2017-08-02T08:09:09.945Z,28.40
2017-08-02T08:11:37.373Z,28.50
2017-08-02T08:14:04.811Z,28.40
2017-08-02T08:16:32.224Z,28.30
2017-08-02T08:18:59.671Z,28.40
2017-08-02T08:21:27.092Z,28.50
2017-08-02T08:23:55.301Z,28.90
2017-08-02T08:26:22.716Z,28.90
2017-08-02T08:28:50.151Z,29.30
2017-08-02T08:31:18.555Z,29.70
2017-08-02T08:33:46.749Z,29.40
2017-08-02T08:36:14.185Z,29.40
2017-08-02T08:38:42.382Z,29.60
2017-08-02T08:41:09.817Z,29.60
2017-08-02T08:43:38.013Z,30.20
2017-08-02T08:46:05.451Z,30.10
2017-08-02T08:48:33.646Z,30.70
2017-08-02T08:51:01.075Z,30.60
2017-08-02T08:53:31.289Z,30.80
2017-08-02T08:55:58.737Z,30.80
2017-08-02T08:58:26.156Z,30.90
2017-08-02T09:00:53.598Z,30.90
2017-08-02T09:03:21.025Z,31.00
2017-08-02T09:05:50.038Z,31.20
2017-08-02T09:08:17.460Z,31.10
2017-08-02T09:10:44.898Z,31.20
2017-08-02T09:13:12.328Z,30.80
2017-08-02T09:15:39.760Z,31.00
2017-08-02T09:18:07.192Z,31.20
2017-08-02T09:20:34.620Z,31.40
2017-08-02T09:23:02.050Z,31.40
2017-08-02T09:25:29.476Z,31.50
2017-08-02T09:27:56.906Z,31.50
2017-08-02T09:30:24.332Z,31.50
2017-08-02T09:32:51.756Z,31.50
2017-08-02T09:35:19.183Z,31.70
2017-08-02T09:37:46.606Z,32.00
2017-08-02T09:40:14.097Z,32.20
2017-08-02T09:42:42.300Z,32.20
2017-08-02T09:45:09.725Z,32.20
2017-08-02T09:47:37.154Z,32.40
2017-08-02T09:50:04.580Z,32.40
2017-08-02T09:52:32.004Z,32.50
2017-08-02T09:55:00.238Z,32.40
2017-08-02T09:57:27.648Z,32.30
2017-08-02T09:59:55.080Z,32.60
2017-08-02T10:02:22.513Z,32.60
2017-08-02T10:04:49.954Z,32.60
2017-08-02T10:07:17.384Z,32.80
2017-08-02T10:09:44.811Z,32.90
2017-08-02T10:12:12.241Z,33.00
2017-08-02T10:14:39.660Z,33.20
2017-08-02T10:17:07.096Z,33.40
2017-08-02T10:19:35.284Z,33.40
2017-08-02T10:22:02.721Z,33.40
2017-08-02T10:24:30.908Z,32.90
2017-08-02T10:26:58.349Z,32.90
2017-08-02T10:29:26.540Z,33.20
2017-08-02T10:31:53.996Z,33.10
2017-08-02T10:34:21.442Z,32.90
2017-08-02T10:36:49.716Z,32.60
2017-08-02T10:39:17.909Z,32.70
2017-08-02T10:41:45.332Z,32.70
2017-08-02T10:44:12.773Z,32.50
2017-08-02T10:46:40.188Z,32.50
2017-08-02T10:49:07.616Z,32.50
2017-08-02T10:51:35.819Z,32.00
2017-08-02T10:54:03.241Z,31.90
2017-08-02T10:56:31.433Z,31.80
2017-08-02T10:58:58.868Z,31.80
2017-08-02T11:01:27.065Z,31.70
2017-08-02T11:03:54.496Z,31.70
2017-08-02T11:06:21.933Z,31.80
2017-08-02T11:08:49.362Z,31.40
2017-08-02T11:11:16.783Z,31.40
2017-08-02T11:13:44.212Z,31.30
2017-08-02T11:16:11.649Z,31.30
2017-08-02T11:18:39.075Z,31.30
2017-08-02T11:21:06.511Z,31.40
2017-08-02T11:23:33.957Z,31.10
2017-08-02T11:26:02.156Z,31.00
2017-08-02T11:28:29.594Z,31.00
2017-08-02T11:30:57.786Z,31.30
2017-08-02T11:33:25.207Z,31.30
2017-08-02T11:35:52.639Z,31.30
2017-08-02T11:38:20.081Z,31.10
2017-08-02T11:40:47.521Z,31.10
2017-08-02T11:43:14.943Z,31.10
2017-08-02T11:45:42.373Z,31.20
2017-08-02T11:48:09.824Z,31.30
2017-08-02T11:50:37.314Z,31.20
2017-08-02T11:53:05.506Z,31.20
2017-08-02T11:55:32.937Z,31.20
2017-08-02T11:58:00.357Z,31.10
2017-08-02T12:00:27.806Z,31.00
2017-08-02T12:02:55.232Z,31.00
2017-08-02T12:05:22.660Z,30.90
2017-08-02T12:07:50.122Z,31.10
2017-08-02T12:10:17.553Z,31.30
2017-08-02T12:12:44.981Z,31.20
2017-08-02T12:15:12.421Z,31.00
2017-08-02T12:17:39.850Z,30.90
2017-08-02T12:20:08.048Z,30.90
2017-08-02T12:22:35.476Z,30.90
2017-08-02T12:25:02.905Z,31.00
2017-08-02T12:27:30.332Z,30.90
2017-08-02T12:29:57.780Z,30.90
2017-08-02T12:32:25.210Z,30.70
2017-08-02T12:34:53.399Z,30.90
2017-08-02T12:37:20.832Z,30.80
2017-08-02T12:39:48.288Z,30.70
2017-08-02T12:42:15.725Z,30.50
2017-08-02T12:44:43.205Z,30.40
2017-08-02T12:47:10.640Z,30.50
2017-08-02T12:49:38.066Z,30.40
2017-08-02T12:52:05.496Z,30.60
2017-08-02T12:54:32.921Z,30.80
2017-08-02T12:57:00.398Z,30.80
2017-08-02T12:59:27.829Z,30.70
2017-08-02T13:01:55.259Z,30.50
2017-08-02T13:04:22.677Z,30.50
2017-08-02T13:06:50.112Z,30.50
2017-08-02T13:09:17.543Z,30.30
2017-08-02T13:11:44.968Z,30.10
2017-08-02T13:14:19.724Z,30.10
2017-08-02T13:16:47.152Z,30.10
2017-08-02T13:19:14.580Z,30.20
2017-08-02T13:21:42.780Z,30.20
2017-08-02T13:24:10.199Z,30.20
2017-08-02T13:26:38.404Z,30.10
2017-08-02T13:29:05.824Z,30.10
2017-08-02T13:31:33.246Z,30.10
2017-08-02T13:34:00.680Z,30.00
2017-08-02T13:36:28.104Z,29.90
2017-08-02T13:38:56.304Z,30.00
2017-08-02T13:41:23.733Z,30.00
2017-08-02T13:43:51.165Z,30.00
2017-08-02T13:46:18.589Z,30.00
2017-08-02T13:48:46.021Z,29.80
2017-08-02T13:51:13.444Z,29.90
2017-08-02T13:53:40.871Z,29.80
2017-08-02T13:56:08.325Z,29.80
2017-08-02T13:58:35.749Z,29.90
2017-08-02T14:01:03.188Z,29.90
2017-08-02T14:03:30.616Z,29.90
2017-08-02T14:05:58.048Z,29.90
2017-08-02T14:08:25.485Z,29.80
2017-08-02T14:10:52.915Z,29.80
2017-08-02T14:13:21.107Z,29.40
2017-08-02T14:15:48.540Z,29.40
2017-08-02T14:18:15.973Z,29.40
2017-08-02T14:20:43.388Z,29.40
2017-08-02T14:23:10.817Z,29.40
2017-08-02T14:25:39.009Z,29.50
2017-08-02T14:28:06.460Z,29.40
2017-08-02T14:30:33.884Z,29.50
2017-08-02T14:33:01.324Z,29.20
2017-08-02T14:35:28.746Z,29.20
2017-08-02T14:37:56.176Z,29.00
2017-08-02T14:40:24.377Z,29.00
2017-08-02T14:42:51.801Z,29.00
2017-08-02T14:45:19.241Z,29.00
2017-08-02T14:47:46.713Z,29.10
2017-08-02T14:50:14.141Z,28.90
2017-08-02T14:52:41.574Z,29.00
2017-08-02T14:55:09.017Z,29.10
2017-08-02T14:57:36.436Z,29.00
2017-08-02T15:00:03.873Z,29.10
2017-08-02T15:02:31.313Z,29.10
2017-08-02T15:04:58.744Z,29.20
2017-08-02T15:07:26.171Z,29.00
2017-08-02T15:09:54.368Z,29.00
2017-08-02T15:12:21.792Z,29.00
2017-08-02T15:14:49.324Z,29.00
2017-08-02T15:17:16.756Z,28.80
2017-08-02T15:19:44.185Z,28.80
2017-08-02T15:22:11.599Z,28.80
2017-08-02T15:24:39.042Z,28.70
2017-08-02T15:27:06.479Z,28.60
2017-08-02T15:29:33.979Z,28.60
2017-08-02T15:32:01.414Z,28.60
2017-08-02T15:34:28.840Z,28.50
2017-08-02T15:36:56.271Z,28.50
2017-08-02T15:39:24.480Z,28.60
2017-08-02T15:41:51.906Z,28.60
2017-08-02T15:44:19.345Z,28.60
2017-08-02T15:46:46.781Z,28.70
2017-08-02T15:49:14.210Z,28.70
2017-08-02T15:51:41.631Z,28.70
2017-08-02T15:54:09.071Z,28.70
2017-08-02T15:56:36.504Z,28.70
2017-08-02T15:59:03.965Z,28.70
2017-08-02T16:01:31.395Z,28.70
2017-08-02T16:03:58.868Z,28.70
2017-08-02T16:06:26.296Z,28.70
2017-08-02T16:08:53.725Z,28.70
2017-08-02T16:11:21.924Z,28.70
2017-08-02T16:13:49.351Z,28.70
2017-08-02T16:16:17.559Z,28.70
2017-08-02T16:18:44.975Z,28.60
2017-08-02T16:21:12.413Z,28.70
2017-08-02T16:23:39.846Z,28.70
2017-08-02T16:26:07.289Z,28.70
2017-08-02T16:28:34.723Z,28.70
2017-08-02T16:31:02.158Z,28.70
2017-08-02T16:33:29.620Z,28.60
2017-08-02T16:35:57.083Z,28.50
2017-08-02T16:38:25.275Z,28.50
2017-08-02T16:40:52.699Z,28.50
2017-08-02T16:43:20.158Z,28.50
2017-08-02T16:45:47.579Z,28.40
2017-08-02T16:48:15.012Z,28.40
2017-08-02T16:50:42.435Z,28.30
2017-08-02T16:53:10.653Z,28.20
2017-08-02T16:55:38.060Z,28.20
2017-08-02T16:58:05.496Z,28.20
2017-08-02T17:00:32.937Z,28.20
2017-08-02T17:03:00.379Z,28.10
2017-08-02T17:05:27.800Z,28.00
2017-08-02T17:07:55.237Z,28.00
2017-08-02T17:10:22.698Z,28.00
2017-08-02T17:12:50.909Z,27.90
2017-08-02T17:15:18.360Z,27.90
2017-08-02T17:17:45.789Z,27.90
2017-08-02T17:20:13.246Z,27.80
2017-08-02T17:22:40.682Z,27.70
2017-08-02T17:25:08.113Z,27.70
2017-08-02T17:27:35.649Z,27.60
2017-08-02T17:30:03.105Z,27.60
2017-08-02T17:32:30.532Z,27.60
2017-08-02T17:34:57.979Z,27.50
2017-08-02T17:37:25.455Z,27.50
2017-08-02T17:39:52.880Z,27.50
2017-08-02T17:42:20.313Z,27.40
2017-08-02T17:44:47.736Z,27.40
2017-08-02T17:47:15.167Z,27.30
2017-08-02T17:49:42.596Z,27.30
2017-08-02T17:52:10.052Z,27.30
2017-08-02T17:54:37.484Z,27.30
2017-08-02T17:57:04.908Z,27.30
2017-08-02T17:59:33.096Z,27.10
2017-08-02T18:02:00.524Z,27.10
2017-08-02T18:04:29.729Z,27.10
2017-08-02T18:06:57.151Z,27.10
2017-08-02T18:09:24.592Z,27.00
2017-08-02T18:11:52.019Z,27.00
2017-08-02T18:14:19.449Z,26.90
2017-08-02T18:16:46.875Z,26.90
2017-08-02T18:19:14.331Z,26.90
2017-08-02T18:21:41.748Z,26.80
2017-08-02T18:24:09.190Z,26.80
2017-08-02T18:26:36.652Z,26.70
2017-08-02T18:29:04.077Z,26.30
2017-08-02T18:31:31.547Z,26.10
2017-08-02T18:33:58.963Z,26.10
2017-08-02T18:36:26.408Z,26.10
2017-08-02T18:38:53.827Z,25.90
2017-08-02T18:41:22.039Z,25.90
2017-08-02T18:43:49.455Z,25.90
2017-08-02T18:46:16.884Z,26.00
2017-08-02T18:48:44.358Z,26.00
2017-08-02T18:51:11.793Z,25.90
2017-08-02T18:53:39.269Z,25.90
2017-08-02T18:56:06.716Z,25.90
2017-08-02T18:58:34.140Z,25.80
2017-08-02T19:01:01.578Z,25.80
2017-08-02T19:03:29.018Z,25.70
2017-08-02T19:05:56.468Z,25.70
2017-08-02T19:08:23.908Z,25.60
2017-08-02T19:10:52.117Z,25.50
2017-08-02T19:13:19.551Z,25.50
2017-08-02T19:15:46.988Z,25.40
2017-08-02T19:18:14.412Z,25.30
2017-08-02T19:20:41.853Z,25.20
2017-08-02T19:23:09.268Z,25.10
2017-08-02T19:25:37.478Z,25.00
2017-08-02T19:28:04.904Z,25.00
2017-08-02T19:30:33.103Z,24.90
2017-08-02T19:33:00.547Z,24.80
2017-08-02T19:35:28.724Z,24.70
2017-08-02T19:37:56.168Z,24.70
2017-08-02T19:40:24.360Z,24.50
2017-08-02T19:42:51.793Z,24.50
2017-08-02T19:45:19.985Z,24.30
2017-08-02T19:47:47.420Z,24.30
2017-08-02T19:50:14.883Z,24.20
2017-08-02T19:52:43.111Z,23.90
2017-08-02T19:55:10.531Z,23.90
2017-08-02T19:57:37.968Z,23.90
2017-08-02T20:00:05.393Z,23.80
2017-08-02T20:02:32.842Z,23.80
2017-08-02T20:05:00.272Z,23.70
2017-08-02T20:07:27.716Z,23.70
2017-08-02T20:09:55.145Z,23.70
2017-08-02T20:12:22.585Z,23.70
2017-08-02T20:14:50.021Z,23.60
2017-08-02T20:17:17.452Z,23.60
2017-08-02T20:19:44.877Z,23.50
2017-08-02T20:22:12.317Z,23.50
2017-08-02T20:24:39.749Z,23.50
2017-08-02T20:27:07.184Z,23.20
2017-08-02T20:29:34.657Z,23.10
2017-08-02T20:32:02.068Z,23.10
2017-08-02T20:34:29.513Z,23.10
2017-08-02T20:36:56.974Z,23.10
2017-08-02T20:39:24.402Z,22.80
2017-08-02T20:41:51.840Z,22.90
2017-08-02T20:44:19.276Z,22.70
2017-08-02T20:46:46.709Z,22.60
2017-08-02T20:49:14.914Z,22.50
2017-08-02T20:51:42.428Z,22.50
2017-08-02T20:54:09.860Z,22.50
2017-08-02T20:56:37.292Z,22.50
2017-08-02T20:59:04.732Z,22.50
2017-08-02T21:01:32.159Z,22.50
2017-08-02T21:03:59.602Z,22.40
2017-08-02T21:06:27.030Z,22.30
2017-08-02T21:08:54.464Z,22.20
2017-08-02T21:11:21.988Z,22.10
2017-08-02T21:13:50.188Z,22.00
2017-08-02T21:16:17.669Z,22.00
2017-08-02T21:18:45.181Z,22.00
2017-08-02T21:21:13.373Z,21.90
2017-08-02T21:23:40.811Z,21.90
2017-08-02T21:26:09.005Z,21.80
2017-08-02T21:28:36.454Z,21.70
2017-08-02T21:31:04.654Z,21.60
2017-08-02T21:33:32.095Z,21.60
2017-08-02T21:35:59.524Z,21.60
2017-08-02T21:38:26.961Z,21.40
2017-08-02T21:40:54.385Z,21.50
2017-08-02T21:43:21.812Z,21.40
2017-08-02T21:45:49.258Z,21.40
2017-08-02T21:48:17.444Z,21.40
2017-08-02T21:50:44.886Z,21.40
2017-08-02T21:53:13.081Z,21.30
2017-08-02T21:55:40.517Z,21.30
2017-08-02T21:58:08.704Z,21.20
2017-08-02T22:00:36.137Z,21.20
2017-08-02T22:03:03.561Z,21.20
2017-08-02T22:05:31.001Z,21.20
2017-08-02T22:07:58.424Z,21.20
2017-08-02T22:10:26.622Z,21.10
2017-08-02T22:12:54.053Z,21.00
2017-08-02T22:15:22.247Z,21.00
2017-08-02T22:17:49.676Z,20.90
2017-08-02T22:20:17.136Z,21.00
2017-08-02T22:22:44.561Z,21.00
2017-08-02T22:25:12.006Z,21.00
2017-08-02T22:27:39.433Z,21.00
2017-08-02T22:30:06.877Z,21.00
2017-08-02T22:32:34.314Z,21.00
2017-08-02T22:35:01.748Z,21.10
2017-08-02T22:37:29.178Z,21.10
2017-08-02T22:39:56.623Z,21.10
2017-08-02T22:42:24.047Z,21.10
2017-08-02T22:44:52.246Z,20.90
2017-08-02T22:47:19.671Z,20.90
2017-08-02T22:49:47.100Z,21.00
2017-08-02T22:52:14.548Z,20.90
2017-08-02T22:54:41.992Z,20.90
2017-08-02T22:57:09.428Z,20.80
2017-08-02T22:59:36.851Z,20.60
2017-08-02T23:02:04.289Z,20.60
2017-08-02T23:04:31.721Z,20.50
2017-08-02T23:06:59.139Z,20.60
2017-08-02T23:09:26.569Z,20.50
2017-08-02T23:11:54.000Z,20.50
2017-08-02T23:14:21.447Z,20.60
2017-08-02T23:16:48.889Z,20.60
2017-08-02T23:19:16.317Z,20.60
2017-08-02T23:21:44.532Z,20.60
2017-08-02T23:24:11.959Z,20.50
2017-08-02T23:26:39.385Z,20.40
2017-08-02T23:29:06.813Z,20.50
2017-08-02T23:31:34.260Z,20.50
2017-08-02T23:34:01.691Z,20.50
2017-08-02T23:36:29.108Z,20.60
2017-08-02T23:38:56.533Z,20.50
2017-08-02T23:41:23.970Z,20.60
2017-08-02T23:43:51.395Z,20.50
2017-08-02T23:46:19.600Z,20.50
2017-08-02T23:48:47.025Z,20.50
2017-08-02T23:51:15.216Z,20.60
2017-08-02T23:53:42.649Z,20.60
2017-08-02T23:56:10.840Z,20.60
2017-08-02T23:58:39.045Z,20.60
